Time;durP1;ratioP1;P1;durP2;ratioP2;P2;SDS_P1;SDS_P2;PMS_P1;PMS_P2;Temp;Humidity;BMP_temperature;BMP_pressure;BME280_temperature;BME280_humidity;BME280_pressure;Samples;Min_cycle;Max_cycle;Signal;HPM_P1;HPM_P2
2024/01/29 00:01:34;;;;;;;8.30;2.65;;;0.70;99.90;;;;;;4953689;29;20035;-56
2024/01/29 00:04:01;;;;;;;6.13;2.85;;;0.60;99.90;;;;;;4950863;28;20031;-55
2024/01/29 00:06:29;;;;;;;5.22;2.88;;;0.60;99.90;;;;;;4952347;29;20043;-53
2024/01/29 00:08:57;;;;;;;6.55;3.03;;;0.50;99.90;;;;;;4953395;29;20070;-55
2024/01/29 00:11:24;;;;;;;8.27;2.90;;;0.40;99.90;;;;;;4953553;28;20047;-54
2024/01/29 00:13:52;;;;;;;6.75;2.95;;;0.40;99.90;;;;;;4949542;28;20035;-58
2024/01/29 00:16:18;;;;;;;6.78;2.95;;;0.40;99.90;;;;;;4953720;29;20035;-52
2024/01/29 00:18:45;;;;;;;8.85;3.30;;;0.40;99.90;;;;;;4953768;29;20042;-56
2024/01/29 00:21:12;;;;;;;5.07;3.10;;;0.50;99.90;;;;;;4953412;29;20063;-55
2024/01/29 00:23:39;;;;;;;5.47;2.60;;;0.50;99.90;;;;;;4951287;28;20129;-57
2024/01/29 00:26:06;;;;;;;5.20;2.67;;;0.50;99.90;;;;;;4953113;29;20114;-54
2024/01/29 00:28:33;;;;;;;5.30;2.67;;;0.50;99.90;;;;;;4953518;29;20039;-53
2024/01/29 00:31:00;;;;;;;6.50;3.30;;;0.50;99.90;;;;;;4953380;29;20094;-55
2024/01/29 00:33:27;;;;;;;5.68;3.13;;;0.50;99.90;;;;;;4949576;28;20043;-56
2024/01/29 00:35:54;;;;;;;7.28;3.10;;;0.60;99.90;;;;;;4952924;29;20055;-55
2024/01/29 00:38:21;;;;;;;6.38;2.40;;;0.60;99.90;;;;;;4953137;29;20047;-56
2024/01/29 00:40:48;;;;;;;7.85;3.67;;;0.60;99.90;;;;;;4949243;29;20044;-57
2024/01/29 00:43:14;;;;;;;7.05;3.10;;;0.60;99.90;;;;;;4952520;28;20501;-57
2024/01/29 00:45:41;;;;;;;9.27;3.30;;;0.50;99.90;;;;;;4953575;28;20039;-55
2024/01/29 00:48:08;;;;;;;5.97;2.90;;;0.50;99.90;;;;;;4952734;29;20047;-54
2024/01/29 00:50:35;;;;;;;5.57;3.10;;;0.40;99.90;;;;;;4951558;29;20122;-54
2024/01/29 00:53:03;;;;;;;5.63;2.88;;;0.40;99.90;;;;;;4952953;28;20061;-54
2024/01/29 00:55:30;;;;;;;9.68;3.38;;;0.40;99.90;;;;;;4953040;29;20055;-52
2024/01/29 00:57:56;;;;;;;7.13;3.08;;;0.40;99.90;;;;;;4935518;29;20050;-54
2024/01/29 01:00:23;;;;;;;5.70;2.80;;;0.40;99.90;;;;;;4947457;29;20046;-54
2024/01/29 01:02:50;;;;;;;6.90;2.92;;;0.30;99.90;;;;;;4952905;29;20496;-58
2024/01/29 01:05:17;;;;;;;5.00;2.78;;;0.30;99.90;;;;;;4952341;29;20494;-54
2024/01/29 01:07:44;;;;;;;5.45;2.92;;;0.30;99.90;;;;;;4935909;29;20098;-57
2024/01/29 01:10:12;;;;;;;5.75;3.05;;;0.30;99.90;;;;;;4945164;29;20408;-55
2024/01/29 01:12:39;;;;;;;5.40;3.03;;;0.30;99.90;;;;;;4953176;29;20043;-57
2024/01/29 01:15:06;;;;;;;7.40;3.03;;;0.40;99.90;;;;;;4952045;29;20118;-53
2024/01/29 01:17:32;;;;;;;8.40;3.40;;;0.40;99.90;;;;;;4952085;29;20039;-54
2024/01/29 01:19:59;;;;;;;5.60;2.75;;;0.40;99.90;;;;;;4953102;29;20043;-54
2024/01/29 01:22:27;;;;;;;9.20;3.40;;;0.40;99.90;;;;;;4953028;29;20039;-52
2024/01/29 01:24:53;;;;;;;6.15;2.97;;;0.40;99.90;;;;;;4952024;28;20043;-54
2024/01/29 01:27:20;;;;;;;7.85;3.17;;;0.30;99.90;;;;;;4950451;29;20051;-55
2024/01/29 01:29:47;;;;;;;4.25;2.33;;;0.30;99.90;;;;;;4952975;29;20039;-52
2024/01/29 01:32:14;;;;;;;5.18;2.67;;;0.30;99.90;;;;;;4952812;29;20063;-54
2024/01/29 01:34:41;;;;;;;6.93;2.40;;;0.30;99.90;;;;;;4952590;28;20046;-53
2024/01/29 01:37:08;;;;;;;4.63;2.47;;;0.30;99.90;;;;;;4950964;29;20457;-56
2024/01/29 01:39:35;;;;;;;3.50;2.33;;;0.30;99.90;;;;;;4952945;29;20485;-56
2024/01/29 01:42:04;;;;;;;5.30;2.42;;;0.30;99.90;;;;;;4952584;29;20044;-54
2024/01/29 01:44:31;;;;;;;5.78;2.55;;;0.40;99.90;;;;;;4952423;28;20081;-54
2024/01/29 01:46:59;;;;;;;5.97;3.00;;;0.40;99.90;;;;;;4950635;29;20128;-56
2024/01/29 01:49:28;;;;;;;5.50;2.83;;;0.40;99.90;;;;;;4945032;29;20388;-55
2024/01/29 01:51:55;;;;;;;6.35;3.10;;;0.40;99.90;;;;;;4952302;29;20086;-57
2024/01/29 01:54:22;;;;;;;6.95;2.88;;;0.40;99.90;;;;;;4947992;28;20412;-54
2024/01/29 01:56:50;;;;;;;7.47;2.72;;;0.40;99.90;;;;;;4951747;29;20102;-53
2024/01/29 01:59:18;;;;;;;;;;;0.40;99.90;;;;;;4952908;29;20051;-56
2024/01/29 02:01:45;;;;;;;4.85;2.63;;;0.40;99.90;;;;;;4952314;29;19922;-53
2024/01/29 02:04:12;;;;;;;5.22;2.55;;;0.40;99.90;;;;;;4945277;29;20043;-56
2024/01/29 02:06:39;;;;;;;5.82;3.08;;;0.40;99.90;;;;;;4952683;29;20043;-54
2024/01/29 02:09:07;;;;;;;5.75;2.75;;;0.40;99.90;;;;;;4952338;29;20043;-55
2024/01/29 02:11:34;;;;;;;3.80;2.33;;;0.40;99.90;;;;;;4947925;29;20043;-55
2024/01/29 02:14:01;;;;;;;7.18;2.53;;;0.50;99.90;;;;;;4952491;28;20094;-54
2024/01/29 02:16:27;;;;;;;4.97;2.15;;;0.40;99.90;;;;;;4952494;29;20043;-52
2024/01/29 02:18:54;;;;;;;4.47;1.92;;;0.40;99.90;;;;;;4950739;29;20051;-53
2024/01/29 02:21:21;;;;;;;7.53;3.15;;;0.40;99.90;;;;;;4951385;29;20040;-52
2024/01/29 02:23:48;;;;;;;4.55;2.38;;;0.30;99.90;;;;;;4952045;28;20035;-55
2024/01/29 02:26:15;;;;;;;7.22;2.65;;;0.30;99.90;;;;;;4952151;29;20079;-53
2024/01/29 02:28:41;;;;;;;6.18;2.90;;;0.30;99.90;;;;;;4950608;29;20036;-53
2024/01/29 02:31:08;;;;;;;6.75;2.38;;;0.30;99.90;;;;;;4935169;29;20142;-54
2024/01/29 02:33:35;;;;;;;6.68;2.78;;;0.20;99.90;;;;;;4952415;28;20094;-55
2024/01/29 02:36:02;;;;;;;6.32;3.03;;;0.20;99.90;;;;;;4954001;28;20047;-55
2024/01/29 02:38:29;;;;;;;6.72;2.55;;;0.10;99.90;;;;;;4948478;29;20047;-57
2024/01/29 02:40:56;;;;;;;7.55;2.35;;;0.10;99.90;;;;;;4955878;29;20043;-52
2024/01/29 02:43:23;;;;;;;6.05;2.42;;;0.10;99.90;;;;;;4953792;28;20047;-53
2024/01/29 02:45:50;;;;;;;5.00;2.72;;;0.10;99.90;;;;;;4954559;29;20045;-55
2024/01/29 02:48:17;;;;;;;3.67;2.30;;;0.10;99.90;;;;;;4955320;29;20063;-53
2024/01/29 02:50:44;;;;;;;5.72;2.72;;;0.10;99.90;;;;;;4955739;29;20051;-57
2024/01/29 02:53:11;;;;;;;7.88;2.95;;;0.10;99.90;;;;;;4955288;28;20062;-53
2024/01/29 02:55:37;;;;;;;5.57;2.53;;;0.00;99.90;;;;;;4952367;29;20040;-54
2024/01/29 02:58:04;;;;;;;7.00;3.03;;;0.10;99.90;;;;;;4955524;29;20054;-54
2024/01/29 03:00:31;;;;;;;12.95;2.85;;;0.10;99.90;;;;;;4955397;29;20039;-53
2024/01/29 03:02:59;;;;;;;5.13;2.40;;;0.10;99.90;;;;;;4955200;28;20587;-55
2024/01/29 03:05:25;;;;;;;5.55;2.60;;;0.00;99.90;;;;;;4948266;29;20467;-54
2024/01/29 03:07:53;;;;;;;8.05;2.83;;;0.00;99.90;;;;;;4955271;29;20094;-57
2024/01/29 03:10:20;;;;;;;6.00;2.65;;;0.00;99.90;;;;;;4955170;29;20098;-55
2024/01/29 03:12:47;;;;;;;6.90;2.58;;;0.00;99.90;;;;;;4951874;28;20046;-57
2024/01/29 03:15:14;;;;;;;6.85;2.50;;;0.00;99.90;;;;;;4954668;29;20397;-55
2024/01/29 03:17:41;;;;;;;3.65;2.10;;;0.10;99.90;;;;;;4955227;29;20054;-55
2024/01/29 03:20:08;;;;;;;5.35;2.63;;;0.10;99.90;;;;;;4955027;29;20055;-54
2024/01/29 03:22:35;;;;;;;6.38;2.45;;;0.10;99.90;;;;;;4946528;29;20062;-54
2024/01/29 03:25:02;;;;;;;3.50;2.25;;;0.10;99.90;;;;;;4954554;28;20053;-55
2024/01/29 03:27:29;;;;;;;;;;;0.10;99.90;;;;;;4955303;29;20126;-54
2024/01/29 03:29:56;;;;;;;4.32;2.03;;;0.10;99.90;;;;;;4949588;29;20392;-56
2024/01/29 03:32:23;;;;;;;6.10;2.33;;;0.00;99.90;;;;;;4953052;29;20051;-53
2024/01/29 03:34:50;;;;;;;6.50;2.08;;;0.00;99.90;;;;;;4954349;28;20571;-55
2024/01/29 03:37:17;;;;;;;5.03;2.47;;;0.10;99.90;;;;;;4954869;29;20058;-57
2024/01/29 03:39:44;;;;;;;5.22;2.13;;;0.10;99.90;;;;;;4949316;29;20110;-54
2024/01/29 03:42:11;;;;;;;3.75;1.92;;;0.00;99.90;;;;;;4954729;29;20130;-58
2024/01/29 03:44:37;;;;;;;5.95;2.53;;;0.00;99.90;;;;;;4949437;28;20113;-56
2024/01/29 03:47:04;;;;;;;2.58;1.75;;;0.00;99.90;;;;;;4937006;29;20075;-57
2024/01/29 03:49:31;;;;;;;5.43;2.00;;;0.00;99.90;;;;;;4953424;29;20051;-57
2024/01/29 03:51:58;;;;;;;2.33;1.83;;;-0.10;99.90;;;;;;4954582;29;20043;-56
2024/01/29 03:54:25;;;;;;;6.18;2.67;;;-0.10;99.90;;;;;;4954054;28;20047;-52
2024/01/29 03:56:52;;;;;;;4.53;2.15;;;-0.10;99.90;;;;;;4951269;29;20515;-53
2024/01/29 03:59:18;;;;;;;7.75;2.10;;;-0.10;99.90;;;;;;4954132;29;20518;-55
2024/01/29 04:01:45;;;;;;;4.68;2.15;;;-0.20;99.90;;;;;;4954186;29;20057;-55
2024/01/29 04:04:12;;;;;;;3.85;1.92;;;-0.20;99.90;;;;;;4953885;28;20508;-56
2024/01/29 04:06:40;;;;;;;4.85;2.22;;;-0.20;99.90;;;;;;4946284;29;20066;-53
2024/01/29 04:09:10;;;;;;;7.38;2.33;;;-0.30;99.90;;;;;;4954218;29;20039;-52
2024/01/29 04:11:37;;;;;;;3.70;2.30;;;-0.30;99.90;;;;;;4953989;29;20489;-54
2024/01/29 04:14:03;;;;;;;4.00;2.22;;;-0.30;99.90;;;;;;4950316;28;20074;-56
2024/01/29 04:16:31;;;;;;;4.47;2.17;;;-0.30;99.90;;;;;;4952219;29;20047;-54
2024/01/29 04:18:57;;;;;;;4.63;1.95;;;-0.20;99.90;;;;;;4953500;29;20420;-54
2024/01/29 04:21:24;;;;;;;5.70;2.00;;;-0.20;99.90;;;;;;4953879;29;20126;-55
2024/01/29 04:23:52;;;;;;;5.75;2.50;;;-0.10;99.90;;;;;;4951120;28;20078;-53
2024/01/29 04:26:19;;;;;;;6.40;1.92;;;-0.10;99.90;;;;;;4950859;29;20132;-54
2024/01/29 04:28:46;;;;;;;4.47;2.30;;;-0.10;99.90;;;;;;4953716;29;20408;-54
2024/01/29 04:31:14;;;;;;;6.53;2.53;;;-0.10;99.90;;;;;;4953406;29;20502;-56
2024/01/29 04:33:42;;;;;;;6.13;2.33;;;-0.10;99.90;;;;;;4950163;29;20089;-56
2024/01/29 04:36:14;;;;;;;3.72;2.10;;;-0.20;99.90;;;;;;4951982;29;20035;-56
2024/01/29 04:38:43;;;;;;;5.57;2.75;;;-0.20;99.90;;;;;;4953095;29;20045;-52
2024/01/29 04:41:17;;;;;;;4.53;2.85;;;-0.20;99.90;;;;;;4951705;29;20043;-53
2024/01/29 04:43:45;;;;;;;4.05;2.05;;;-0.30;99.90;;;;;;4949836;29;20058;-57
2024/01/29 04:46:12;;;;;;;6.22;1.90;;;-0.30;99.90;;;;;;4950453;29;20046;-52
2024/01/29 04:48:39;;;;;;;5.35;2.17;;;-0.30;99.90;;;;;;4953301;29;20043;-53
2024/01/29 04:51:07;;;;;;;5.13;2.65;;;-0.30;99.90;;;;;;4951012;29;20047;-58
2024/01/29 04:53:35;;;;;;;3.75;1.95;;;-0.30;99.90;;;;;;4952779;28;20046;-54
2024/01/29 04:56:03;;;;;;;3.70;1.92;;;-0.30;99.90;;;;;;4952267;29;20512;-53
2024/01/29 04:58:30;;;;;;;4.85;2.05;;;-0.20;99.90;;;;;;4951347;28;20110;-53
2024/01/29 05:00:58;;;;;;;;;;;-0.10;99.90;;;;;;4953924;29;20053;-55
2024/01/29 05:03:26;;;;;;;5.53;2.05;;;-0.10;99.90;;;;;;4933994;29;19922;-55
2024/01/29 05:05:53;;;;;;;3.42;1.80;;;0.00;99.90;;;;;;4952868;29;20042;-54
2024/01/29 05:08:20;;;;;;;;;;;0.00;99.90;;;;;;4951704;29;20045;-54
2024/01/29 05:10:47;;;;;;;3.42;1.65;;;0.00;99.90;;;;;;4953345;29;20287;-56
2024/01/29 05:13:17;;;;;;;5.55;2.20;;;0.00;99.90;;;;;;4950471;28;20047;-54
2024/01/29 05:15:45;;;;;;;4.80;2.72;;;0.00;99.90;;;;;;4952093;29;20118;-56
2024/01/29 05:18:12;;;;;;;5.43;2.70;;;0.00;99.90;;;;;;4953187;29;20055;-52
2024/01/29 05:20:38;;;;;;;4.25;2.30;;;0.00;99.90;;;;;;4952900;29;20139;-53
2024/01/29 05:23:06;;;;;;;8.20;2.47;;;-0.10;99.90;;;;;;4951392;28;20047;-56
2024/01/29 05:25:33;;;;;;;;;;;-0.10;99.90;;;;;;4935658;29;20035;-53
2024/01/29 05:28:00;;;;;;;11.35;2.20;;;-0.10;99.90;;;;;;4953350;29;20017;-53
2024/01/29 05:30:27;;;;;;;4.47;2.17;;;-0.20;99.90;;;;;;4952253;28;20050;-55
2024/01/29 05:32:54;;;;;;;8.20;2.42;;;-0.20;99.90;;;;;;4951705;29;20043;-56
2024/01/29 05:35:21;;;;;;;6.72;3.42;;;-0.20;99.90;;;;;;4952982;29;20128;-54
2024/01/29 05:37:48;;;;;;;10.48;5.00;;;-0.30;99.90;;;;;;4936252;29;20049;-58
2024/01/29 05:40:14;;;;;;;13.18;4.50;;;-0.30;99.90;;;;;;4949282;29;20054;-56
2024/01/29 05:42:42;;;;;;;12.05;4.65;;;-0.40;99.90;;;;;;4953009;28;20046;-54
2024/01/29 05:45:09;;;;;;;7.43;3.75;;;-0.40;99.90;;;;;;4952993;29;20164;-53
2024/01/29 05:47:37;;;;;;;9.52;3.90;;;-0.40;99.90;;;;;;4952868;29;20047;-57
2024/01/29 05:50:05;;;;;;;7.28;3.17;;;-0.40;99.90;;;;;;4952504;29;20069;-54
2024/01/29 05:52:33;;;;;;;7.80;2.25;;;-0.40;99.90;;;;;;4953199;29;20102;-55
2024/01/29 05:55:00;;;;;;;;;;;-0.30;99.90;;;;;;4952685;28;20052;-53
2024/01/29 05:57:30;;;;;;;5.03;2.13;;;-0.20;99.90;;;;;;4945488;29;19946;-57
2024/01/29 05:59:56;;;;;;;3.65;2.20;;;-0.10;99.90;;;;;;4936041;29;20102;-53
2024/01/29 06:02:23;;;;;;;5.00;1.98;;;0.00;99.90;;;;;;4952520;29;20129;-55
2024/01/29 06:04:50;;;;;;;4.25;1.98;;;0.00;99.90;;;;;;4951463;28;20106;-58
2024/01/29 06:07:20;;;;;;;5.88;2.35;;;0.00;99.90;;;;;;4949502;29;20583;-52
2024/01/29 06:09:46;;;;;;;5.20;2.53;;;0.00;99.90;;;;;;4959426;28;20047;-56
2024/01/29 06:12:13;;;;;;;2.95;2.10;;;-0.10;99.90;;;;;;4956297;29;20070;-55
2024/01/29 06:14:40;;;;;;;5.05;2.30;;;-0.10;99.90;;;;;;4953867;28;20449;-54
2024/01/29 06:17:07;;;;;;;5.07;2.63;;;-0.10;99.90;;;;;;4949771;29;20042;-54
2024/01/29 06:19:34;;;;;;;10.43;3.15;;;-0.10;99.90;;;;;;4956138;29;20047;-57
2024/01/29 06:22:20;;;;;;;4.68;2.30;;;-0.10;99.90;;;;;;4954774;29;20043;-57
2024/01/29 06:24:47;;;;;;;3.22;1.77;;;-0.20;99.90;;;;;;4950192;28;20046;-52
2024/01/29 06:27:14;;;;;;;5.15;2.63;;;-0.20;99.90;;;;;;4937074;29;20031;-56
2024/01/29 06:29:41;;;;;;;7.35;3.60;;;-0.20;99.90;;;;;;4954307;29;20058;-52
2024/01/29 06:32:07;;;;;;;6.85;2.70;;;-0.20;99.90;;;;;;4955131;29;20039;-52
2024/01/29 06:34:35;;;;;;;6.80;2.80;;;-0.20;99.90;;;;;;4947729;29;20067;-52
2024/01/29 06:37:03;;;;;;;5.63;2.47;;;-0.20;99.90;;;;;;4955793;29;20051;-57
2024/01/29 06:39:30;;;;;;;7.85;2.33;;;-0.20;99.90;;;;;;4955769;29;20085;-55
2024/01/29 06:41:56;;;;;;;11.15;2.25;;;-0.20;99.90;;;;;;4955600;29;20035;-56
2024/01/29 06:44:23;;;;;;;4.20;2.45;;;-0.10;99.90;;;;;;4949778;29;20519;-56
2024/01/29 06:46:50;;;;;;;7.40;2.75;;;0.00;99.90;;;;;;4955392;29;20043;-55
2024/01/29 06:49:30;;;;;;;5.90;2.90;;;0.00;99.90;;;;;;4955831;29;20039;-57
2024/01/29 06:51:57;;;;;;;11.00;3.72;;;0.00;99.90;;;;;;4953536;29;20051;-56
2024/01/29 06:54:24;;;;;;;3.85;2.20;;;0.00;99.90;;;;;;4955130;28;20141;-57
2024/01/29 06:56:52;;;;;;;4.05;2.17;;;-0.10;99.90;;;;;;4955002;29;20496;-57
2024/01/29 06:59:19;;;;;;;6.82;2.65;;;-0.10;99.90;;;;;;4954555;29;20079;-56
2024/01/29 07:01:46;;;;;;;8.40;2.70;;;-0.10;99.90;;;;;;4952919;29;20039;-57
2024/01/29 07:04:13;;;;;;;7.90;2.70;;;-0.10;99.90;;;;;;4955063;28;20027;-57
2024/01/29 07:06:40;;;;;;;5.63;2.58;;;-0.10;99.90;;;;;;4955138;29;20073;-57
2024/01/29 07:09:07;;;;;;;8.27;2.90;;;-0.10;99.90;;;;;;4954939;29;20114;-55
2024/01/29 07:11:34;;;;;;;6.90;2.60;;;-0.10;99.90;;;;;;4952743;29;20078;-56
2024/01/29 07:14:01;;;;;;;6.00;2.70;;;-0.10;99.90;;;;;;4947076;28;20118;-57
2024/01/29 07:16:27;;;;;;;6.68;2.53;;;0.00;99.90;;;;;;4954959;29;20555;-57
2024/01/29 07:18:54;;;;;;;5.28;2.38;;;0.10;99.90;;;;;;4952315;29;20118;-57
2024/01/29 07:21:21;;;;;;;;;;;0.10;99.90;;;;;;4954554;28;20122;-55
2024/01/29 07:23:48;;;;;;;7.43;2.92;;;0.20;99.90;;;;;;4954927;28;20372;-53
2024/01/29 07:26:15;;;;;;;6.05;2.70;;;0.10;99.90;;;;;;4954797;29;20389;-53
2024/01/29 07:28:42;;;;;;;7.50;3.28;;;0.10;99.90;;;;;;4948872;28;20050;-56
2024/01/29 07:31:09;;;;;;;7.75;3.33;;;0.10;99.90;;;;;;4954965;29;20031;-56
2024/01/29 07:33:36;;;;;;;4.88;2.70;;;0.00;99.90;;;;;;4954625;28;20047;-53
2024/01/29 07:36:03;;;;;;;6.53;2.83;;;0.10;99.90;;;;;;4945679;29;20074;-53
2024/01/29 07:38:30;;;;;;;7.05;2.95;;;0.10;99.90;;;;;;4954694;29;20362;-56
2024/01/29 07:40:57;;;;;;;4.85;3.08;;;0.10;99.90;;;;;;4953961;29;20043;-53
2024/01/29 07:43:23;;;;;;;5.10;2.35;;;0.20;99.90;;;;;;4954010;28;20044;-55
2024/01/29 07:45:50;;;;;;;7.30;3.15;;;0.20;99.90;;;;;;4948359;29;20478;-57
2024/01/29 07:48:17;;;;;;;9.98;4.05;;;0.20;99.90;;;;;;4954631;29;20046;-56
2024/01/29 07:50:44;;;;;;;8.60;3.05;;;0.20;99.90;;;;;;4954498;29;20456;-56
2024/01/29 07:53:11;;;;;;;7.55;3.22;;;0.20;99.90;;;;;;4952541;28;20115;-56
2024/01/29 07:55:38;;;;;;;4.88;2.97;;;0.20;99.90;;;;;;4954168;29;20044;-55
2024/01/29 07:58:05;;;;;;;5.28;2.72;;;0.20;99.90;;;;;;4946144;29;20408;-55
2024/01/29 08:00:31;;;;;;;8.32;3.42;;;0.20;99.90;;;;;;4953903;29;20515;-58
2024/01/29 08:02:58;;;;;;;7.85;3.35;;;0.20;99.90;;;;;;4950085;28;20051;-57
2024/01/29 08:05:25;;;;;;;6.05;3.33;;;0.20;99.90;;;;;;4954081;29;20137;-55
2024/01/29 08:07:52;;;;;;;10.05;3.13;;;0.20;99.90;;;;;;4961829;28;20043;-58
2024/01/29 08:10:18;;;;;;;5.95;3.05;;;0.20;99.90;;;;;;4949928;29;20040;-54
2024/01/29 08:12:46;;;;;;;4.70;2.50;;;0.20;99.90;;;;;;4951119;28;20070;-58
2024/01/29 08:15:13;;;;;;;10.27;3.60;;;0.20;99.90;;;;;;4953791;29;20043;-56
2024/01/29 08:17:40;;;;;;;6.70;2.67;;;0.30;99.90;;;;;;4954300;29;20044;-53
2024/01/29 08:20:07;;;;;;;7.22;3.00;;;0.30;99.90;;;;;;4948508;29;20075;-54
2024/01/29 08:22:34;;;;;;;5.70;2.72;;;0.30;99.90;;;;;;4953731;29;20110;-53
2024/01/29 08:25:01;;;;;;;4.78;2.88;;;0.40;99.90;;;;;;4953320;28;20040;-54
2024/01/29 08:27:29;;;;;;;5.80;2.85;;;0.50;99.90;;;;;;4953610;29;20043;-54
2024/01/29 08:29:57;;;;;;;7.10;3.00;;;0.70;99.90;;;;;;4952603;29;20406;-56
2024/01/29 08:32:23;;;;;;;9.75;3.90;;;0.80;99.90;;;;;;4953678;28;20043;-55
2024/01/29 08:34:50;;;;;;;;;;;1.00;99.90;;;;;;4953352;28;20047;-56
2024/01/29 08:37:17;;;;;;;6.18;3.22;;;1.10;99.90;;;;;;4953786;29;20376;-58
2024/01/29 08:39:44;;;;;;;3.72;2.15;;;1.20;99.90;;;;;;4946060;29;20050;-56
2024/01/29 08:42:11;;;;;;;9.07;2.78;;;1.30;99.90;;;;;;4953563;29;20519;-57
2024/01/29 08:44:38;;;;;;;5.97;2.58;;;1.40;99.90;;;;;;4936138;29;20412;-55
2024/01/29 08:47:05;;;;;;;14.75;4.65;;;1.50;99.90;;;;;;4946796;29;20404;-56
2024/01/29 08:49:32;;;;;;;11.60;3.92;;;1.50;99.90;;;;;;4953662;29;20130;-57
2024/01/29 08:51:58;;;;;;;7.50;3.00;;;1.60;99.90;;;;;;4953296;29;20066;-57
2024/01/29 08:54:25;;;;;;;7.63;3.40;;;1.70;99.90;;;;;;4950553;28;20098;-57
2024/01/29 08:56:52;;;;;;;5.78;3.25;;;1.90;99.90;;;;;;4953041;29;20054;-56
2024/01/29 08:59:20;;;;;;;6.68;2.42;;;2.00;99.90;;;;;;4953540;29;20048;-56
2024/01/29 09:01:47;;;;;;;8.55;2.15;;;2.20;99.90;;;;;;4948523;29;20048;-55
2024/01/29 09:04:14;;;;;;;5.00;2.10;;;2.30;99.90;;;;;;4952948;28;20453;-54
2024/01/29 09:06:41;;;;;;;4.43;2.22;;;2.40;99.90;;;;;;4953442;29;20039;-59
2024/01/29 09:09:09;;;;;;;6.25;2.35;;;2.40;99.90;;;;;;4953113;29;20499;-54
2024/01/29 09:11:36;;;;;;;5.85;2.30;;;2.60;99.90;;;;;;4950832;29;20373;-57
2024/01/29 09:14:02;;;;;;;4.22;2.50;;;2.70;99.90;;;;;;4952540;28;20094;-56
2024/01/29 09:16:29;;;;;;;4.90;2.55;;;2.80;99.90;;;;;;4952754;29;20043;-56
2024/01/29 09:18:56;;;;;;;9.10;2.70;;;2.90;99.90;;;;;;4947607;29;20460;-53
2024/01/29 09:21:23;;;;;;;6.85;2.85;;;3.10;99.90;;;;;;4953264;29;20043;-54
2024/01/29 09:23:50;;;;;;;6.20;3.00;;;3.20;99.90;;;;;;4952680;28;20581;-54
2024/01/29 09:26:17;;;;;;;6.72;2.80;;;3.30;99.90;;;;;;4952865;29;20044;-57
2024/01/29 09:28:44;;;;;;;5.40;2.55;;;3.40;99.90;;;;;;4950699;29;20050;-57
2024/01/29 09:31:10;;;;;;;7.32;3.25;;;3.50;99.90;;;;;;4952866;29;20035;-52
2024/01/29 09:33:37;;;;;;;4.68;2.72;;;3.60;99.90;;;;;;4953112;28;20444;-56
2024/01/29 09:36:05;;;;;;;7.72;3.08;;;3.70;99.90;;;;;;4946617;29;20115;-54
2024/01/29 09:38:32;;;;;;;4.78;2.60;;;3.80;99.90;;;;;;4952976;29;20036;-55
2024/01/29 09:40:58;;;;;;;7.13;2.85;;;3.80;99.90;;;;;;4952807;29;20138;-55
2024/01/29 09:43:26;;;;;;;10.32;3.40;;;3.90;99.90;;;;;;4950550;28;20054;-58
2024/01/29 09:45:56;;;;;;;7.18;2.83;;;3.90;99.90;;;;;;4954570;29;20047;-55
2024/01/29 09:48:22;;;;;;;4.72;2.97;;;4.00;99.90;;;;;;4956872;29;20511;-57
2024/01/29 09:50:52;;;;;;;6.13;2.65;;;4.00;99.90;;;;;;4956638;29;20409;-54
2024/01/29 09:53:20;;;;;;;7.85;3.65;;;4.00;99.90;;;;;;4940606;29;20089;-56
2024/01/29 09:55:48;;;;;;;7.43;2.95;;;4.10;99.90;;;;;;4956356;29;20047;-57
2024/01/29 09:58:15;;;;;;;4.18;2.40;;;4.20;99.90;;;;;;4956077;29;20067;-54
2024/01/29 10:00:42;;;;;;;6.75;3.22;;;4.20;99.90;;;;;;4939558;29;20477;-55
2024/01/29 10:03:19;;;;;;;4.60;2.33;;;4.30;99.90;;;;;;4938088;29;20138;-56
2024/01/29 10:05:47;;;;;;;4.38;2.47;;;4.30;99.90;;;;;;4956346;29;20090;-58
2024/01/29 10:08:14;;;;;;;5.47;2.00;;;4.40;99.90;;;;;;4956266;29;20400;-56
2024/01/29 10:10:41;;;;;;;5.28;2.40;;;4.40;99.90;;;;;;4951840;29;20091;-57
2024/01/29 10:13:08;;;;;;;4.07;1.85;;;4.40;99.90;;;;;;4953557;29;20043;-57
2024/01/29 10:15:36;;;;;;;4.75;2.08;;;4.50;99.90;;;;;;4956345;29;20440;-57
2024/01/29 10:18:04;;;;;;;7.43;2.15;;;4.50;99.90;;;;;;4938924;29;20051;-56
2024/01/29 10:20:31;;;;;;;4.45;1.90;;;4.60;99.90;;;;;;4949505;29;20043;-53
2024/01/29 10:22:59;;;;;;;4.85;1.50;;;4.60;99.90;;;;;;4955666;28;20043;-58
2024/01/29 10:25:28;;;;;;;7.88;2.33;;;4.70;99.90;;;;;;4955832;29;20071;-55
2024/01/29 10:28:10;;;;;;;7.85;1.90;;;4.60;99.90;;;;;;4953850;29;20053;-55
2024/01/29 10:30:39;;;;;;;3.67;1.85;;;4.60;99.90;;;;;;4950537;29;20043;-54
2024/01/29 10:33:07;;;;;;;13.10;2.17;;;4.60;99.90;;;;;;4955661;28;20114;-53
2024/01/29 10:35:35;;;;;;;10.05;2.17;;;4.70;99.90;;;;;;4955709;29;20051;-57
2024/01/29 10:38:04;;;;;;;6.15;2.45;;;4.70;99.90;;;;;;4947794;29;20345;-56
2024/01/29 10:40:33;;;;;;;14.38;2.38;;;4.80;99.90;;;;;;4955853;29;20496;-55
2024/01/29 10:43:02;;;;;;;5.88;2.58;;;5.00;99.90;;;;;;4955362;28;20165;-58
2024/01/29 10:45:30;;;;;;;3.30;1.50;;;5.10;99.90;;;;;;4955357;29;20042;-56
2024/01/29 10:48:16;;;;;;;4.80;1.90;;;5.30;99.90;;;;;;4953161;29;20071;-59
2024/01/29 10:50:44;;;;;;;5.90;1.60;;;5.50;99.90;;;;;;4955827;29;20476;-59
2024/01/29 10:53:13;;;;;;;6.72;1.90;;;5.70;99.90;;;;;;4954972;28;20043;-54
2024/01/29 10:55:40;;;;;;;6.78;1.67;;;5.80;99.90;;;;;;4952216;28;20043;-58
2024/01/29 10:58:07;;;;;;;3.90;1.75;;;6.00;99.90;;;;;;4955445;29;20059;-58
2024/01/29 11:00:35;;;;;;;9.30;1.80;;;6.10;99.90;;;;;;4955523;29;20518;-55
2024/01/29 11:03:04;;;;;;;5.60;1.63;;;6.20;99.90;;;;;;4954959;28;20055;-53
2024/01/29 11:05:32;;;;;;;9.20;1.98;;;6.30;99.90;;;;;;4948173;29;20067;-57
2024/01/29 11:08:01;;;;;;;2.35;1.50;;;6.30;99.90;;;;;;4955786;29;20084;-57
2024/01/29 11:10:30;;;;;;;4.88;1.90;;;6.40;99.90;;;;;;4955315;29;20039;-55
2024/01/29 11:12:59;;;;;;;3.10;1.80;;;6.50;99.90;;;;;;4952727;28;20047;-54
2024/01/29 11:15:26;;;;;;;5.38;1.80;;;6.50;99.90;;;;;;4954874;29;20055;-57
2024/01/29 11:17:56;;;;;;;3.50;1.70;;;6.60;99.70;;;;;;4955321;29;20039;-55
2024/01/29 11:20:23;;;;;;;3.30;1.77;;;6.70;99.50;;;;;;4952504;29;20094;-58
2024/01/29 11:22:53;;;;;;;4.20;1.88;;;6.70;99.30;;;;;;4950382;28;20043;-58
2024/01/29 11:25:20;;;;;;;2.90;1.67;;;6.70;99.30;;;;;;4954862;29;20051;-56
2024/01/29 11:27:49;;;;;;;4.60;1.45;;;6.80;99.00;;;;;;4955042;29;20039;-57
2024/01/29 11:30:19;;;;;;;3.00;1.70;;;7.00;98.20;;;;;;4953634;29;20122;-57
2024/01/29 11:32:47;;;;;;;4.65;1.48;;;7.00;98.80;;;;;;4954781;28;20066;-59
2024/01/29 11:35:26;;;;;;;5.50;1.83;;;7.10;98.00;;;;;;4954192;29;20054;-54
2024/01/29 11:38:09;;;;;;;5.13;1.95;;;7.20;97.80;;;;;;4953761;29;20575;-56
2024/01/29 11:40:43;;;;;;;4.25;1.40;;;7.20;98.00;;;;;;4954895;29;20071;-55
2024/01/29 11:43:20;;;;;;;2.10;1.20;;;7.20;97.10;;;;;;4954621;28;20102;-53
2024/01/29 11:45:48;;;;;;;4.55;1.65;;;7.20;97.30;;;;;;4954483;29;20031;-57
2024/01/29 11:48:17;;;;;;;3.25;1.40;;;7.20;96.70;;;;;;4946627;29;20051;-58
2024/01/29 11:50:49;;;;;;;3.10;1.58;;;7.30;96.80;;;;;;4953936;29;20054;-55
2024/01/29 11:53:17;;;;;;;5.50;1.48;;;7.40;96.90;;;;;;4937121;29;20051;-57
2024/01/29 11:55:48;;;;;;;3.30;1.48;;;7.40;96.90;;;;;;4950816;29;20090;-55
2024/01/29 11:58:18;;;;;;;2.42;1.27;;;7.60;97.10;;;;;;4954440;29;20094;-58
2024/01/29 12:00:47;;;;;;;3.60;1.58;;;7.70;96.70;;;;;;4937135;29;20051;-59
2024/01/29 12:03:20;;;;;;;5.05;1.48;;;7.80;96.00;;;;;;4952959;28;20047;-54
2024/01/29 12:05:49;;;;;;;3.05;1.60;;;7.90;96.30;;;;;;4954032;29;20035;-57
2024/01/29 12:08:18;;;;;;;4.40;1.60;;;8.00;96.30;;;;;;4953436;28;20520;-59
2024/01/29 12:10:46;;;;;;;7.20;1.60;;;8.00;95.60;;;;;;4954227;29;20046;-57
2024/01/29 12:13:14;;;;;;;3.58;1.70;;;8.10;95.40;;;;;;4949862;28;20508;-53
2024/01/29 12:15:41;;;;;;;6.53;1.77;;;8.20;95.20;;;;;;4953670;29;20130;-56
2024/01/29 12:18:14;;;;;;;;;;;8.30;95.10;;;;;;4954459;29;20075;-56
2024/01/29 12:20:41;;;;;;;6.07;1.75;;;8.40;94.70;;;;;;4950341;29;19922;-58
2024/01/29 12:23:08;;;;;;;4.60;1.20;;;8.50;95.00;;;;;;4953640;28;20129;-59
2024/01/29 12:25:36;;;;;;;4.35;1.33;;;8.60;94.60;;;;;;4953450;29;20080;-55
2024/01/29 12:28:04;;;;;;;5.03;1.30;;;8.60;93.90;;;;;;4951016;29;20059;-56
2024/01/29 12:30:31;;;;;;;4.03;1.63;;;8.70;93.80;;;;;;4953536;29;20472;-58
2024/01/29 12:32:58;;;;;;;3.65;1.60;;;8.80;93.20;;;;;;4953706;28;20043;-56
2024/01/29 12:35:26;;;;;;;3.83;1.42;;;8.80;93.20;;;;;;4953373;29;20039;-58
2024/01/29 12:38:06;;;;;;;3.33;1.30;;;8.70;93.20;;;;;;4953004;29;20075;-55
2024/01/29 12:40:34;;;;;;;4.40;1.20;;;8.70;93.70;;;;;;4953892;29;20058;-54
2024/01/29 12:43:02;;;;;;;5.40;1.35;;;8.70;93.40;;;;;;4953606;28;20138;-56
2024/01/29 12:45:29;;;;;;;2.92;1.20;;;8.70;94.00;;;;;;4952292;29;20046;-54
2024/01/29 12:48:26;;;;;;;2.30;1.35;;;8.70;93.80;;;;;;4953599;29;20055;-57
2024/01/29 12:50:53;;;;;;;6.55;1.50;;;8.60;94.40;;;;;;4951746;29;20055;-57
2024/01/29 12:53:20;;;;;;;5.43;1.50;;;8.60;93.80;;;;;;4951285;28;20580;-55
2024/01/29 12:55:47;;;;;;;6.80;1.55;;;8.60;94.70;;;;;;4946446;29;20043;-57
2024/01/29 12:58:14;;;;;;;;;;;8.70;94.50;;;;;;4936748;29;20492;-55
2024/01/29 13:00:43;;;;;;;2.60;1.33;;;8.70;93.60;;;;;;4935697;29;19973;-58